createdAt,value
2022-08-30T00:00:04.417Z,96495.13
2022-08-30T00:02:36.129Z,96500.03
2022-08-30T00:05:04.841Z,96498.03
2022-08-30T00:07:32.688Z,96494.91
2022-08-30T00:10:00.233Z,96497.41
2022-08-30T00:12:27.719Z,96495.16
2022-08-30T00:14:56.164Z,96499.00
2022-08-30T00:17:23.669Z,96495.88
2022-08-30T00:19:52.505Z,96496.72
2022-08-30T00:22:20.024Z,96494.47
2022-08-30T00:24:47.501Z,96491.16
2022-08-30T00:27:15.545Z,96483.53
2022-08-30T00:29:43.172Z,96487.47
2022-08-30T00:32:11.198Z,96495.34
2022-08-30T00:34:38.748Z,96483.94
2022-08-30T00:37:07.588Z,96489.56
2022-08-30T00:39:35.117Z,96481.41
2022-08-30T00:42:02.663Z,96486.19
2022-08-30T00:44:30.192Z,96487.78
2022-08-30T00:46:57.693Z,96481.53
2022-08-30T00:49:25.930Z,96491.81
2022-08-30T00:51:54.457Z,96489.66
2022-08-30T00:54:25.480Z,96491.72
2022-08-30T00:56:54.337Z,96493.00
2022-08-30T00:59:24.216Z,96487.16
2022-08-30T01:01:52.037Z,96484.81
2022-08-30T01:04:21.671Z,96486.41
2022-08-30T01:06:49.285Z,96480.78
2022-08-30T01:09:17.168Z,96476.69
2022-08-30T01:11:47.536Z,96476.13
2022-08-30T01:14:17.143Z,96480.47
2022-08-30T01:16:46.162Z,96479.19
2022-08-30T01:19:25.176Z,96468.72
2022-08-30T01:21:58.925Z,96470.78
2022-08-30T01:24:27.841Z,96473.97
2022-08-30T01:26:55.959Z,96476.00
2022-08-30T01:29:26.725Z,96476.75
2022-08-30T01:31:54.225Z,96475.50
2022-08-30T01:34:21.713Z,96477.00
2022-08-30T01:36:50.434Z,96477.00
2022-08-30T01:39:19.454Z,96474.97
2022-08-30T01:41:48.291Z,96471.19
2022-08-30T01:44:16.313Z,96474.25
2022-08-30T01:46:46.811Z,96474.66
2022-08-30T01:49:17.108Z,96472.13
2022-08-30T01:51:46.573Z,96476.22
2022-08-30T01:54:14.633Z,96478.38
2022-08-30T01:56:42.258Z,96471.19
2022-08-30T01:59:11.153Z,96477.59
2022-08-30T02:01:39.882Z,96475.19
2022-08-30T02:04:09.126Z,96470.34
2022-08-30T02:06:39.270Z,96477.50
2022-08-30T02:09:07.009Z,96475.69
2022-08-30T02:11:35.080Z,96470.34
2022-08-30T02:14:02.720Z,96475.69
2022-08-30T02:16:31.598Z,96476.00
2022-08-30T02:18:59.329Z,96476.31
2022-08-30T02:21:28.008Z,96469.56
2022-08-30T02:23:55.595Z,96468.31
2022-08-30T02:26:23.247Z,96468.88
2022-08-30T02:28:51.479Z,96470.59
2022-08-30T02:31:20.758Z,96476.03
2022-08-30T02:33:51.732Z,96470.44
2022-08-30T02:36:21.273Z,96465.91
2022-08-30T02:38:49.251Z,96470.88
2022-08-30T02:41:17.832Z,96464.72
2022-08-30T02:43:45.509Z,96461.47
2022-08-30T02:46:13.114Z,96468.19
2022-08-30T02:48:40.683Z,96467.19
2022-08-30T02:51:12.184Z,96466.28
2022-08-30T02:53:40.472Z,96473.03
2022-08-30T02:56:08.733Z,96471.97
2022-08-30T02:58:37.189Z,96476.16
2022-08-30T03:01:06.024Z,96481.84
2022-08-30T03:03:33.699Z,96481.84
2022-08-30T03:06:03.175Z,96474.47
2022-08-30T03:08:33.139Z,96474.56
2022-08-30T03:11:02.650Z,96481.69
2022-08-30T03:13:30.618Z,96475.41
2022-08-30T03:15:58.516Z,96477.88
2022-08-30T03:18:26.610Z,96469.72
2022-08-30T03:20:55.004Z,96467.88
2022-08-30T03:23:24.343Z,96466.03
2022-08-30T03:25:53.704Z,96474.69
2022-08-30T03:28:21.960Z,96472.38
2022-08-30T03:30:49.448Z,96475.44
2022-08-30T03:33:18.497Z,96486.13
2022-08-30T03:35:46.199Z,96484.19
2022-08-30T03:38:13.686Z,96480.84
2022-08-30T03:40:41.300Z,96487.22
2022-08-30T03:43:11.156Z,96484.81
2022-08-30T03:45:39.285Z,96492.78
2022-08-30T03:48:06.915Z,96501.88
2022-08-30T03:50:35.300Z,96504.63
2022-08-30T03:53:02.837Z,96491.91
2022-08-30T03:55:31.379Z,96503.53
2022-08-30T03:57:59.237Z,96495.41
2022-08-30T04:00:28.256Z,96498.50
2022-08-30T04:02:55.735Z,96507.50
2022-08-30T04:05:23.296Z,96495.53
2022-08-30T04:07:50.822Z,96495.88
2022-08-30T04:10:21.130Z,96501.47
2022-08-30T04:12:49.801Z,96499.63
2022-08-30T04:15:18.604Z,96493.84
2022-08-30T04:17:48.167Z,96500.06
2022-08-30T04:20:16.640Z,96500.22
2022-08-30T04:22:44.187Z,96497.31
2022-08-30T04:25:15.409Z,96503.28
2022-08-30T04:27:43.289Z,96505.81
2022-08-30T04:30:12.385Z,96510.34
2022-08-30T04:32:39.909Z,96509.56
2022-08-30T04:35:09.659Z,96506.41
2022-08-30T04:37:38.010Z,96508.63
2022-08-30T04:40:07.416Z,96511.59
2022-08-30T04:42:36.073Z,96513.03
2022-08-30T04:45:05.497Z,96508.59
2022-08-30T04:47:33.356Z,96511.66
2022-08-30T04:50:00.874Z,96522.50
2022-08-30T04:52:30.153Z,96525.03
2022-08-30T04:54:58.675Z,96520.25
2022-08-30T04:57:27.685Z,96530.91
2022-08-30T04:59:56.070Z,96526.19
2022-08-30T05:02:23.856Z,96529.78
2022-08-30T05:05:09.014Z,96534.06
2022-08-30T05:07:38.127Z,96532.38
2022-08-30T05:10:10.977Z,96530.16
2022-08-30T05:12:38.910Z,96534.44
2022-08-30T05:15:07.255Z,96532.06
2022-08-30T05:17:34.755Z,96536.50
2022-08-30T05:20:03.007Z,96523.38
2022-08-30T05:22:30.609Z,96527.75
2022-08-30T05:25:00.781Z,96530.06
2022-08-30T05:27:28.299Z,96532.53
2022-08-30T05:29:56.759Z,96523.53
2022-08-30T05:32:24.887Z,96523.59
2022-08-30T05:34:52.376Z,96530.09
2022-08-30T05:37:19.894Z,96530.06
2022-08-30T05:39:51.691Z,96528.03
2022-08-30T05:42:21.137Z,96526.81
2022-08-30T05:44:52.163Z,96532.78
2022-08-30T05:47:19.867Z,96528.59
2022-08-30T05:49:47.959Z,96534.69
2022-08-30T05:52:18.098Z,96543.03
2022-08-30T05:54:45.907Z,96544.91
2022-08-30T05:57:13.436Z,96540.06
2022-08-30T05:59:42.336Z,96548.13
2022-08-30T06:02:09.950Z,96536.38
2022-08-30T06:04:37.631Z,96541.91
2022-08-30T06:07:05.836Z,96540.13
2022-08-30T06:09:33.379Z,96535.84
2022-08-30T06:12:00.872Z,96540.13
2022-08-30T06:14:28.387Z,96543.84
2022-08-30T06:16:58.418Z,96532.53
2022-08-30T06:19:25.909Z,96538.06
2022-08-30T06:21:53.499Z,96546.41
2022-08-30T06:24:35.705Z,96536.13
2022-08-30T06:27:08.525Z,96542.66
2022-08-30T06:29:36.056Z,96537.03
2022-08-30T06:32:05.004Z,96543.72
2022-08-30T06:34:32.500Z,96545.84
2022-08-30T06:37:00.011Z,96537.31
2022-08-30T06:39:27.508Z,96542.47
2022-08-30T06:41:55.556Z,96537.94
2022-08-30T06:44:23.063Z,96541.59
2022-08-30T06:46:50.615Z,96543.91
2022-08-30T06:49:19.511Z,96531.66
2022-08-30T06:51:47.023Z,96538.19
2022-08-30T06:54:14.701Z,96535.56
2022-08-30T06:56:57.793Z,96540.22
2022-08-30T06:59:26.934Z,96538.97
2022-08-30T07:01:55.245Z,96542.94
2022-08-30T07:04:24.349Z,96540.69
2022-08-30T07:06:51.907Z,96549.13
2022-08-30T07:09:19.896Z,96539.34
2022-08-30T07:11:51.263Z,96531.22
2022-08-30T07:14:19.651Z,96536.72
2022-08-30T07:16:51.151Z,96523.13
2022-08-30T07:19:20.942Z,96531.91
2022-08-30T07:21:50.664Z,96535.09
2022-08-30T07:24:19.343Z,96536.53
2022-08-30T07:26:49.904Z,96530.28
2022-08-30T07:29:18.474Z,96535.31
2022-08-30T07:31:46.257Z,96536.34
2022-08-30T07:34:13.961Z,96540.25
2022-08-30T07:36:41.453Z,96545.28
2022-08-30T07:39:10.548Z,96547.94
2022-08-30T07:41:39.402Z,96548.97
2022-08-30T07:44:08.199Z,96551.19
2022-08-30T07:46:36.199Z,96554.53
2022-08-30T07:49:04.648Z,96549.59
2022-08-30T07:51:38.347Z,96547.53
2022-08-30T07:54:06.975Z,96549.28
2022-08-30T07:56:36.664Z,96548.25
2022-08-30T07:59:04.448Z,96540.75
2022-08-30T08:01:32.280Z,96536.09
2022-08-30T08:03:59.821Z,96540.34
2022-08-30T08:06:34.613Z,96541.13
2022-08-30T08:09:02.646Z,96539.31
2022-08-30T08:11:33.624Z,96529.75
2022-08-30T08:14:04.177Z,96531.78
2022-08-30T08:16:34.093Z,96539.09
2022-08-30T08:19:02.263Z,96537.03
2022-08-30T08:21:29.892Z,96537.84
2022-08-30T08:23:57.372Z,96534.69
2022-08-30T08:26:24.849Z,96532.75
2022-08-30T08:28:52.340Z,96526.88
2022-08-30T08:31:25.443Z,96539.59
2022-08-30T08:33:54.903Z,96535.66
2022-08-30T08:36:22.626Z,96545.34
2022-08-30T08:38:50.101Z,96546.63
2022-08-30T08:41:32.378Z,96549.91
2022-08-30T08:44:00.566Z,96548.53
2022-08-30T08:46:36.144Z,96541.72
2022-08-30T08:49:07.141Z,96536.16
2022-08-30T08:51:53.416Z,96531.41
2022-08-30T08:54:28.484Z,96531.09
2022-08-30T08:56:56.020Z,96532.13
2022-08-30T08:59:23.750Z,96530.16
2022-08-30T09:01:52.612Z,96532.47
2022-08-30T09:04:32.674Z,96529.13
2022-08-30T09:07:04.886Z,96531.22
2022-08-30T09:09:35.639Z,96529.69
2022-08-30T09:12:03.912Z,96523.84
2022-08-30T09:14:36.451Z,96527.34
2022-08-30T09:17:07.556Z,96525.25
2022-08-30T09:19:39.967Z,96524.06
2022-08-30T09:22:20.233Z,96512.28
2022-08-30T09:24:51.503Z,96518.28
2022-08-30T09:27:23.995Z,96515.63
2022-08-30T09:30:02.073Z,96513.22
2022-08-30T09:32:42.595Z,96506.66
2022-08-30T09:35:14.211Z,96517.72
2022-08-30T09:37:49.994Z,96508.47
2022-08-30T09:40:26.395Z,96511.59
2022-08-30T09:43:03.571Z,96501.78
2022-08-30T09:45:36.001Z,96508.63
2022-08-30T09:48:23.438Z,96495.09
2022-08-30T09:50:57.900Z,96503.25
2022-08-30T09:53:31.243Z,96504.56
2022-08-30T09:56:10.214Z,96501.72
2022-08-30T09:58:56.188Z,96499.41
2022-08-30T10:01:28.789Z,96486.44
2022-08-30T10:04:06.639Z,96490.41
2022-08-30T10:06:42.191Z,96495.91
2022-08-30T10:09:20.028Z,96493.38
2022-08-30T10:11:57.963Z,96487.56
2022-08-30T10:14:52.583Z,96483.28
2022-08-30T10:17:38.964Z,96480.75
2022-08-30T10:20:17.578Z,96473.63
2022-08-30T10:22:50.346Z,96475.75
2022-08-30T10:25:22.262Z,96472.13
2022-08-30T10:27:55.985Z,96471.50
2022-08-30T10:30:24.230Z,96471.66
2022-08-30T10:32:56.160Z,96468.50
2022-08-30T10:35:27.407Z,96460.22
2022-08-30T10:37:59.487Z,96472.13
2022-08-30T10:40:51.020Z,96466.31
2022-08-30T10:43:25.397Z,96463.78
2022-08-30T10:45:57.793Z,96465.34
2022-08-30T10:48:30.140Z,96475.03
2022-08-30T10:51:05.614Z,96468.09
2022-08-30T10:53:40.114Z,96463.09
2022-08-30T10:56:11.626Z,96458.28
2022-08-30T10:58:42.891Z,96458.94
2022-08-30T11:01:28.578Z,96465.69
2022-08-30T11:04:29.393Z,96463.72
2022-08-30T11:07:10.107Z,96461.28
2022-08-30T11:09:49.088Z,96452.03
2022-08-30T11:12:33.806Z,96449.00
2022-08-30T11:15:14.019Z,96450.94
2022-08-30T11:17:47.639Z,96452.84
2022-08-30T11:20:34.591Z,96447.34
2022-08-30T11:23:37.237Z,96447.63
2022-08-30T11:26:07.460Z,96449.16
2022-08-30T11:29:07.301Z,96437.25
2022-08-30T11:31:45.193Z,96438.88
2022-08-30T11:34:53.549Z,96437.78
2022-08-30T11:37:47.168Z,96435.59
2022-08-30T11:40:49.123Z,96437.22
2022-08-30T11:43:51.716Z,96440.53
2022-08-30T11:46:35.207Z,96431.16
2022-08-30T11:49:27.625Z,96430.16
2022-08-30T11:52:27.242Z,96438.19
2022-08-30T11:55:32.772Z,96435.13
2022-08-30T11:58:14.819Z,96432.28
2022-08-30T12:00:47.827Z,96426.72
2022-08-30T12:03:33.413Z,96424.34
2022-08-30T12:06:04.280Z,96427.34
2022-08-30T12:09:02.324Z,96427.75
2022-08-30T12:12:02.215Z,96420.59
2022-08-30T12:14:52.604Z,96421.03
2022-08-30T12:17:45.093Z,96418.25
2022-08-30T12:20:24.582Z,96420.25
2022-08-30T12:22:53.451Z,96408.09
2022-08-30T12:25:31.147Z,96417.56
2022-08-30T12:28:14.790Z,96403.56
2022-08-30T12:30:46.818Z,96413.41
2022-08-30T12:33:24.160Z,96402.66
2022-08-30T12:35:59.230Z,96397.06
2022-08-30T12:38:32.834Z,96394.88
2022-08-30T12:41:05.873Z,96397.06
2022-08-30T12:43:40.234Z,96393.16
2022-08-30T12:46:15.545Z,96387.25
2022-08-30T12:48:44.236Z,96390.66
2022-08-30T12:51:27.803Z,96380.03
2022-08-30T12:54:04.977Z,96381.81
2022-08-30T12:56:51.658Z,96378.25
2022-08-30T12:59:52.931Z,96369.66
2022-08-30T13:02:26.631Z,96369.63
2022-08-30T13:04:55.904Z,96368.84
2022-08-30T13:07:29.097Z,96366.94
2022-08-30T13:10:12.052Z,96367.44
2022-08-30T13:12:40.335Z,96373.75
2022-08-30T13:15:28.467Z,96372.25
2022-08-30T13:18:26.806Z,96368.00
2022-08-30T13:21:23.111Z,96367.19
2022-08-30T13:23:57.703Z,96363.50
2022-08-30T13:26:25.878Z,96370.53
2022-08-30T13:28:56.959Z,96358.63
2022-08-30T13:31:25.370Z,96364.97
2022-08-30T13:33:55.333Z,96364.50
2022-08-30T13:36:29.110Z,96361.53
2022-08-30T13:38:58.403Z,96363.25
2022-08-30T13:41:26.249Z,96366.31
2022-08-30T13:44:13.263Z,96353.38
2022-08-30T13:46:47.616Z,96355.84
2022-08-30T13:52:21.098Z,96343.34
2022-08-30T13:54:49.977Z,96351.47
2022-08-30T13:57:53.344Z,96351.13
2022-08-30T14:00:12.212Z,96350.97
2022-08-30T14:02:45.332Z,96347.13
2022-08-30T14:05:37.630Z,96341.94
2022-08-30T14:08:05.157Z,96354.69
2022-08-30T14:10:39.428Z,96351.84
2022-08-30T14:13:14.448Z,96341.38
2022-08-30T14:15:42.274Z,96343.31
2022-08-30T14:18:11.131Z,96346.97
2022-08-30T14:20:44.051Z,96342.19
2022-08-30T14:23:12.573Z,96339.34
2022-08-30T14:25:40.935Z,96331.22
2022-08-30T14:28:09.745Z,96337.56
2022-08-30T14:30:38.785Z,96330.13
2022-08-30T14:33:06.972Z,96329.59
2022-08-30T14:35:36.476Z,96328.41
2022-08-30T14:38:05.952Z,96328.38
2022-08-30T14:40:33.746Z,96332.63
2022-08-30T14:43:02.385Z,96321.72
2022-08-30T14:45:29.875Z,96320.31
2022-08-30T14:47:57.761Z,96315.38
2022-08-30T14:50:27.983Z,96323.06
2022-08-30T14:52:55.545Z,96326.38
2022-08-30T14:55:24.412Z,96326.75
2022-08-30T14:57:52.140Z,96325.59
2022-08-30T15:00:20.228Z,96328.53
2022-08-30T15:02:47.753Z,96324.94
2022-08-30T15:05:15.871Z,96321.13
2022-08-30T15:07:43.957Z,96322.09
2022-08-30T15:10:14.652Z,96315.66
2022-08-30T15:12:43.482Z,96310.59
2022-08-30T15:15:12.696Z,96318.38
2022-08-30T15:17:40.180Z,96312.59
2022-08-30T15:20:10.653Z,96310.81
2022-08-30T15:22:38.670Z,96309.47
2022-08-30T15:25:07.324Z,96308.16
2022-08-30T15:27:36.955Z,96301.66
2022-08-30T15:30:07.459Z,96301.91
2022-08-30T15:32:34.969Z,96297.13
2022-08-30T15:35:03.764Z,96298.06
2022-08-30T15:37:31.279Z,96295.13
2022-08-30T15:39:58.917Z,96298.88
2022-08-30T15:42:27.204Z,96286.81
2022-08-30T15:44:55.713Z,96279.00
2022-08-30T15:47:25.037Z,96283.47
2022-08-30T15:49:56.975Z,96274.78
2022-08-30T15:52:24.777Z,96275.28
2022-08-30T15:54:52.805Z,96277.44
2022-08-30T15:57:22.539Z,96268.50
2022-08-30T15:59:50.869Z,96271.34
2022-08-30T16:02:18.566Z,96272.59
2022-08-30T16:04:47.437Z,96274.66
2022-08-30T16:07:16.402Z,96281.78
2022-08-30T16:09:44.085Z,96271.31
2022-08-30T16:12:11.564Z,96271.63
2022-08-30T16:14:39.078Z,96275.75
2022-08-30T16:17:06.793Z,96274.84
2022-08-30T16:19:34.303Z,96280.94
2022-08-30T16:22:03.163Z,96272.09
2022-08-30T16:24:30.736Z,96260.38
2022-08-30T16:26:58.666Z,96269.22
2022-08-30T16:29:26.184Z,96264.81
2022-08-30T16:31:53.720Z,96269.19
2022-08-30T16:34:22.315Z,96263.13
2022-08-30T16:36:50.036Z,96263.50
2022-08-30T16:39:19.205Z,96266.94
2022-08-30T16:41:48.289Z,96260.38
2022-08-30T16:44:17.933Z,96260.22
2022-08-30T16:46:52.942Z,96250.88
2022-08-30T16:49:22.662Z,96255.41
2022-08-30T16:51:50.384Z,96252.69
2022-08-30T16:54:19.785Z,96249.78
2022-08-30T16:56:47.324Z,96245.69
2022-08-30T16:59:14.895Z,96240.50
2022-08-30T17:01:44.035Z,96242.19
2022-08-30T17:04:18.497Z,96242.28
2022-08-30T17:06:47.271Z,96242.84
2022-08-30T17:09:15.061Z,96244.03
2022-08-30T17:11:44.650Z,96246.31
2022-08-30T17:14:12.566Z,96242.78
2022-08-30T17:16:41.401Z,96250.72
2022-08-30T17:19:11.524Z,96252.53
2022-08-30T17:21:39.046Z,96247.81
2022-08-30T17:24:07.072Z,96254.28
2022-08-30T17:26:37.652Z,96256.13
2022-08-30T17:29:07.740Z,96254.81
2022-08-30T17:31:35.727Z,96255.09
2022-08-30T17:34:05.728Z,96260.28
2022-08-30T17:36:35.567Z,96263.25
2022-08-30T17:39:10.330Z,96269.66
2022-08-30T17:41:39.527Z,96269.91
2022-08-30T17:44:08.391Z,96270.50
2022-08-30T17:46:37.101Z,96270.50
2022-08-30T17:49:05.459Z,96277.25
2022-08-30T17:51:33.572Z,96280.53
2022-08-30T17:54:01.160Z,96287.41
2022-08-30T17:56:35.563Z,96287.28
2022-08-30T17:59:04.809Z,96289.28
2022-08-30T18:01:33.642Z,96291.94
2022-08-30T18:04:05.916Z,96286.00
2022-08-30T18:06:34.184Z,96298.69
2022-08-30T18:09:02.031Z,96297.13
2022-08-30T18:11:29.519Z,96299.06
2022-08-30T18:13:57.095Z,96303.88
2022-08-30T18:16:26.214Z,96294.34
2022-08-30T18:18:57.284Z,96301.56
2022-08-30T18:21:25.579Z,96308.25
2022-08-30T18:23:56.082Z,96314.66
2022-08-30T18:26:24.565Z,96314.00
2022-08-30T18:28:52.905Z,96316.47
2022-08-30T18:31:20.517Z,96327.25
2022-08-30T18:33:48.691Z,96326.09
2022-08-30T18:36:18.204Z,96331.75
2022-08-30T18:38:45.871Z,96330.25
2022-08-30T18:41:15.175Z,96346.75
2022-08-30T18:43:43.871Z,96351.59
2022-08-30T18:46:14.592Z,96352.19
2022-08-30T18:48:43.515Z,96345.72
2022-08-30T18:51:12.353Z,96354.75
2022-08-30T18:53:42.108Z,96349.31
2022-08-30T18:56:09.732Z,96350.13
2022-08-30T18:58:40.199Z,96351.84
2022-08-30T19:01:12.872Z,96358.34
2022-08-30T19:03:41.796Z,96354.84
2022-08-30T19:06:12.267Z,96346.38
2022-08-30T19:08:41.571Z,96347.38
2022-08-30T19:11:13.525Z,96355.34
2022-08-30T19:13:41.034Z,96361.94
2022-08-30T19:16:08.994Z,96358.28
2022-08-30T19:18:40.384Z,96353.44
2022-08-30T19:21:13.467Z,96352.09
2022-08-30T19:23:42.739Z,96360.97
2022-08-30T19:26:10.930Z,96353.97
2022-08-30T19:28:38.580Z,96356.09
2022-08-30T19:31:06.812Z,96363.09
2022-08-30T19:33:34.661Z,96356.91
2022-08-30T19:36:02.421Z,96359.13
2022-08-30T19:38:30.146Z,96358.78
2022-08-30T19:41:00.169Z,96362.41
2022-08-30T19:43:30.605Z,96364.59
2022-08-30T19:46:01.503Z,96369.31
2022-08-30T19:48:32.852Z,96365.50
2022-08-30T19:51:01.306Z,96367.63
2022-08-30T19:53:29.124Z,96374.59
2022-08-30T19:55:56.637Z,96373.19
2022-08-30T19:58:25.460Z,96375.66
2022-08-30T20:00:57.848Z,96366.81
2022-08-30T20:03:39.853Z,96361.19
2022-08-30T20:06:07.986Z,96361.41
2022-08-30T20:08:36.636Z,96360.72
2022-08-30T20:11:04.153Z,96362.91
2022-08-30T20:13:33.833Z,96372.78
2022-08-30T20:16:02.208Z,96373.41
2022-08-30T20:18:29.994Z,96374.50
2022-08-30T20:20:57.616Z,96385.31
2022-08-30T20:23:25.687Z,96374.47
2022-08-30T20:25:55.456Z,96373.16
2022-08-30T20:28:24.536Z,96375.19
2022-08-30T20:30:54.503Z,96377.66
2022-08-30T20:33:23.635Z,96376.41
2022-08-30T20:35:51.872Z,96373.31
2022-08-30T20:38:21.906Z,96366.06
2022-08-30T20:40:54.109Z,96371.91
2022-08-30T20:43:23.677Z,96364.38
2022-08-30T20:45:51.243Z,96373.44
2022-08-30T20:48:20.666Z,96366.03
2022-08-30T20:50:48.467Z,96363.94
2022-08-30T20:53:16.793Z,96371.41
2022-08-30T20:55:45.782Z,96356.56
2022-08-30T20:58:14.333Z,96370.13
2022-08-30T21:00:45.823Z,96369.13
2022-08-30T21:03:26.172Z,96364.75
2022-08-30T21:05:57.207Z,96366.03
2022-08-30T21:08:24.939Z,96373.53
2022-08-30T21:10:52.798Z,96385.72
2022-08-30T21:13:20.315Z,96383.16
2022-08-30T21:15:52.003Z,96389.81
2022-08-30T21:18:19.637Z,96384.03
2022-08-30T21:20:47.249Z,96398.00
2022-08-30T21:23:17.109Z,96391.03
2022-08-30T21:25:44.731Z,96392.06
2022-08-30T21:28:12.231Z,96394.34
2022-08-30T21:30:39.866Z,96396.44
2022-08-30T21:33:08.740Z,96405.56
2022-08-30T21:35:55.517Z,96395.63
2022-08-30T21:38:24.559Z,96401.66
2022-08-30T21:40:52.130Z,96410.13
2022-08-30T21:43:19.648Z,96399.78
2022-08-30T21:45:50.163Z,96402.28
2022-08-30T21:48:17.809Z,96406.41
2022-08-30T21:50:46.423Z,96404.81
2022-08-30T21:53:15.379Z,96402.91
2022-08-30T21:55:48.127Z,96405.22
2022-08-30T21:58:15.928Z,96410.19
2022-08-30T22:00:43.425Z,96406.03
2022-08-30T22:03:10.998Z,96402.72
2022-08-30T22:05:38.564Z,96408.50
2022-08-30T22:08:06.063Z,96409.75
2022-08-30T22:10:33.600Z,96416.81
2022-08-30T22:13:10.095Z,96409.34
2022-08-30T22:15:38.219Z,96408.13
2022-08-30T22:18:06.087Z,96404.00
2022-08-30T22:20:33.633Z,96402.34
2022-08-30T22:23:01.125Z,96398.22
2022-08-30T22:25:28.640Z,96402.97
2022-08-30T22:27:56.108Z,96405.25
2022-08-30T22:30:25.004Z,96397.41
2022-08-30T22:32:55.393Z,96398.66
2022-08-30T22:35:23.025Z,96397.19
2022-08-30T22:37:53.266Z,96398.66
2022-08-30T22:40:21.714Z,96394.25
2022-08-30T22:42:49.258Z,96387.03
2022-08-30T22:45:16.859Z,96388.91
2022-08-30T22:47:45.687Z,96392.22
2022-08-30T22:50:14.226Z,96384.78
2022-08-30T22:52:41.986Z,96391.19
2022-08-30T22:55:10.004Z,96387.47
2022-08-30T22:57:38.128Z,96381.66
2022-08-30T23:00:07.577Z,96387.44
2022-08-30T23:02:36.357Z,96380.41
2022-08-30T23:05:06.280Z,96381.06
2022-08-30T23:07:33.769Z,96377.56
2022-08-30T23:10:01.295Z,96379.63
2022-08-30T23:12:29.352Z,96370.91
2022-08-30T23:14:56.850Z,96377.94
2022-08-30T23:17:24.729Z,96377.34
2022-08-30T23:19:53.290Z,96376.72
2022-08-30T23:22:22.136Z,96378.38
2022-08-30T23:25:07.666Z,96370.94
2022-08-30T23:28:01.456Z,96373.81
2022-08-30T23:30:46.831Z,96369.66
2022-08-30T23:33:32.152Z,96373.38
2022-08-30T23:36:17.507Z,96375.41
2022-08-30T23:39:04.197Z,96372.38
2022-08-30T23:41:52.715Z,96376.66
2022-08-30T23:44:38.169Z,96365.06
2022-08-30T23:47:23.503Z,96366.28
2022-08-30T23:50:08.923Z,96368.97
2022-08-30T23:52:54.187Z,96363.41
2022-08-30T23:55:40.743Z,96363.44
2022-08-30T23:58:26.228Z,96363.19
